sensor_id;sensor_type;location;lat;lon;timestamp;temperature;humidity
78611;SHT30;67932;50.474;4.436;2023-07-20T00:02:04;15.79;78.90
78611;SHT30;67932;50.474;4.436;2023-07-20T00:04:31;15.78;78.95
78611;SHT30;67932;50.474;4.436;2023-07-20T00:06:59;15.75;79.12
78611;SHT30;67932;50.474;4.436;2023-07-20T00:09:27;15.82;78.98
78611;SHT30;67932;50.474;4.436;2023-07-20T00:11:54;15.75;79.34
78611;SHT30;67932;50.474;4.436;2023-07-20T00:14:20;15.65;79.54
78611;SHT30;67932;50.474;4.436;2023-07-20T00:16:47;15.66;79.69
78611;SHT30;67932;50.474;4.436;2023-07-20T00:19:22;15.71;79.50
78611;SHT30;67932;50.474;4.436;2023-07-20T00:21:49;15.78;79.44
78611;SHT30;67932;50.474;4.436;2023-07-20T00:24:15;15.78;79.62
78611;SHT30;67932;50.474;4.436;2023-07-20T00:26:41;15.68;80.00
78611;SHT30;67932;50.474;4.436;2023-07-20T00:29:08;15.72;79.94
78611;SHT30;67932;50.474;4.436;2023-07-20T00:31:34;15.66;80.27
78611;SHT30;67932;50.474;4.436;2023-07-20T00:34:03;15.68;80.40
78611;SHT30;67932;50.474;4.436;2023-07-20T00:36:30;15.77;80.20
78611;SHT30;67932;50.474;4.436;2023-07-20T00:38:56;15.62;80.93
78611;SHT30;67932;50.474;4.436;2023-07-20T00:41:22;15.64;81.00
78611;SHT30;67932;50.474;4.436;2023-07-20T00:43:50;15.59;81.31
78611;SHT30;67932;50.474;4.436;2023-07-20T00:46:17;15.58;81.62
78611;SHT30;67932;50.474;4.436;2023-07-20T00:48:43;15.59;81.66
78611;SHT30;67932;50.474;4.436;2023-07-20T00:51:09;15.59;81.91
78611;SHT30;67932;50.474;4.436;2023-07-20T00:53:36;15.58;81.98
78611;SHT30;67932;50.474;4.436;2023-07-20T00:56:03;15.45;82.59
78611;SHT30;67932;50.474;4.436;2023-07-20T00:58:29;15.57;82.46
78611;SHT30;67932;50.474;4.436;2023-07-20T01:00:56;15.55;82.59
78611;SHT30;67932;50.474;4.436;2023-07-20T01:03:22;15.47;82.90
78611;SHT30;67932;50.474;4.436;2023-07-20T01:06:13;15.47;83.04
78611;SHT30;67932;50.474;4.436;2023-07-20T01:11:16;15.38;83.79
78611;SHT30;67932;50.474;4.436;2023-07-20T01:13:43;15.38;83.91
78611;SHT30;67932;50.474;4.436;2023-07-20T01:16:10;15.37;84.05
78611;SHT30;67932;50.474;4.436;2023-07-20T01:18:36;15.40;84.19
78611;SHT30;67932;50.474;4.436;2023-07-20T01:21:08;15.37;84.13
78611;SHT30;67932;50.474;4.436;2023-07-20T01:23:46;15.37;84.37
78611;SHT30;67932;50.474;4.436;2023-07-20T01:26:45;15.40;84.33
78611;SHT30;67932;50.474;4.436;2023-07-20T01:29:29;15.30;84.97
78611;SHT30;67932;50.474;4.436;2023-07-20T01:32:01;15.23;85.24
78611;SHT30;67932;50.474;4.436;2023-07-20T01:34:30;15.30;85.13
78611;SHT30;67932;50.474;4.436;2023-07-20T01:36:57;15.31;85.35
78611;SHT30;67932;50.474;4.436;2023-07-20T01:39:24;15.28;85.60
78611;SHT30;67932;50.474;4.436;2023-07-20T01:41:50;15.35;85.38
78611;SHT30;67932;50.474;4.436;2023-07-20T01:44:16;15.32;85.67
78611;SHT30;67932;50.474;4.436;2023-07-20T01:46:43;15.37;85.45
78611;SHT30;67932;50.474;4.436;2023-07-20T01:49:09;15.40;85.50
78611;SHT30;67932;50.474;4.436;2023-07-20T01:51:35;15.41;85.54
78611;SHT30;67932;50.474;4.436;2023-07-20T01:54:01;15.44;85.54
78611;SHT30;67932;50.474;4.436;2023-07-20T01:56:28;15.42;85.60
78611;SHT30;67932;50.474;4.436;2023-07-20T01:58:54;15.47;85.48
78611;SHT30;67932;50.474;4.436;2023-07-20T02:01:20;15.37;85.94
78611;SHT30;67932;50.474;4.436;2023-07-20T02:03:46;15.47;85.68
78611;SHT30;67932;50.474;4.436;2023-07-20T02:06:13;15.40;85.91
78611;SHT30;67932;50.474;4.436;2023-07-20T02:08:39;15.37;85.92
78611;SHT30;67932;50.474;4.436;2023-07-20T02:11:05;15.35;86.10
78611;SHT30;67932;50.474;4.436;2023-07-20T02:13:31;15.28;86.47
78611;SHT30;67932;50.474;4.436;2023-07-20T02:15:58;15.37;86.29
78611;SHT30;67932;50.474;4.436;2023-07-20T02:18:24;15.42;86.17
78611;SHT30;67932;50.474;4.436;2023-07-20T02:20:52;15.37;86.25
78611;SHT30;67932;50.474;4.436;2023-07-20T02:23:18;15.38;86.35
78611;SHT30;67932;50.474;4.436;2023-07-20T02:25:44;15.40;86.17
78611;SHT30;67932;50.474;4.436;2023-07-20T02:28:13;15.48;86.04
78611;SHT30;67932;50.474;4.436;2023-07-20T02:30:39;15.45;85.95
78611;SHT30;67932;50.474;4.436;2023-07-20T02:33:06;15.51;85.83
78611;SHT30;67932;50.474;4.436;2023-07-20T02:35:33;15.37;86.47
78611;SHT30;67932;50.474;4.436;2023-07-20T02:37:59;15.27;86.82
78611;SHT30;67932;50.474;4.436;2023-07-20T02:40:25;15.27;86.85
78611;SHT30;67932;50.474;4.436;2023-07-20T02:42:52;15.24;87.09
78611;SHT30;67932;50.474;4.436;2023-07-20T02:45:18;15.24;87.11
78611;SHT30;67932;50.474;4.436;2023-07-20T02:47:45;15.34;86.92
78611;SHT30;67932;50.474;4.436;2023-07-20T02:50:11;15.31;86.98
78611;SHT30;67932;50.474;4.436;2023-07-20T02:52:39;15.30;87.01
78611;SHT30;67932;50.474;4.436;2023-07-20T02:55:06;15.31;86.92
78611;SHT30;67932;50.474;4.436;2023-07-20T02:57:32;15.24;87.31
78611;SHT30;67932;50.474;4.436;2023-07-20T02:59:58;15.27;87.33
78611;SHT30;67932;50.474;4.436;2023-07-20T03:02:25;15.26;87.31
78611;SHT30;67932;50.474;4.436;2023-07-20T03:04:51;15.20;87.50
78611;SHT30;67932;50.474;4.436;2023-07-20T03:07:17;15.21;87.70
78611;SHT30;67932;50.474;4.436;2023-07-20T03:09:43;15.23;87.62
78611;SHT30;67932;50.474;4.436;2023-07-20T03:12:10;15.19;87.67
78611;SHT30;67932;50.474;4.436;2023-07-20T03:14:36;15.20;87.66
78611;SHT30;67932;50.474;4.436;2023-07-20T03:17:02;15.19;87.82
78611;SHT30;67932;50.474;4.436;2023-07-20T03:19:29;15.21;87.79
78611;SHT30;67932;50.474;4.436;2023-07-20T03:21:55;15.24;87.74
78611;SHT30;67932;50.474;4.436;2023-07-20T03:24:21;15.27;87.66
78611;SHT30;67932;50.474;4.436;2023-07-20T03:26:47;15.27;87.58
78611;SHT30;67932;50.474;4.436;2023-07-20T03:29:14;15.30;87.55
78611;SHT30;67932;50.474;4.436;2023-07-20T03:31:42;15.42;87.17
78611;SHT30;67932;50.474;4.436;2023-07-20T03:34:08;15.31;87.34
78611;SHT30;67932;50.474;4.436;2023-07-20T03:36:34;15.34;87.40
78611;SHT30;67932;50.474;4.436;2023-07-20T03:39:01;15.28;87.55
78611;SHT30;67932;50.474;4.436;2023-07-20T03:41:28;15.32;87.46
78611;SHT30;67932;50.474;4.436;2023-07-20T03:43:54;15.30;87.49
78611;SHT30;67932;50.474;4.436;2023-07-20T03:46:21;15.31;87.55
78611;SHT30;67932;50.474;4.436;2023-07-20T03:48:47;15.10;88.44
78611;SHT30;67932;50.474;4.436;2023-07-20T03:51:13;15.20;88.17
78611;SHT30;67932;50.474;4.436;2023-07-20T03:53:40;15.26;87.96
78611;SHT30;67932;50.474;4.436;2023-07-20T03:56:06;15.11;88.48
78611;SHT30;67932;50.474;4.436;2023-07-20T03:58:32;15.08;88.69
78611;SHT30;67932;50.474;4.436;2023-07-20T04:00:59;15.04;89.02
78611;SHT30;67932;50.474;4.436;2023-07-20T04:03:25;14.97;89.20
78611;SHT30;67932;50.474;4.436;2023-07-20T04:05:54;14.94;89.52
78611;SHT30;67932;50.474;4.436;2023-07-20T04:08:24;14.89;89.72
78611;SHT30;67932;50.474;4.436;2023-07-20T04:10:51;14.87;89.79
78611;SHT30;67932;50.474;4.436;2023-07-20T04:13:17;14.96;89.50
78611;SHT30;67932;50.474;4.436;2023-07-20T04:15:44;14.91;89.89
78611;SHT30;67932;50.474;4.436;2023-07-20T04:18:10;15.04;89.45
78611;SHT30;67932;50.474;4.436;2023-07-20T04:20:36;15.08;89.15
78611;SHT30;67932;50.474;4.436;2023-07-20T04:23:04;15.01;89.54
78611;SHT30;67932;50.474;4.436;2023-07-20T04:25:30;15.16;88.90
78611;SHT30;67932;50.474;4.436;2023-07-20T04:28:05;15.19;88.81
78611;SHT30;67932;50.474;4.436;2023-07-20T04:30:35;15.11;89.05
78611;SHT30;67932;50.474;4.436;2023-07-20T04:33:05;15.10;89.13
78611;SHT30;67932;50.474;4.436;2023-07-20T04:38:13;15.07;89.50
78611;SHT30;67932;50.474;4.436;2023-07-20T04:40:41;15.06;89.46
78611;SHT30;67932;50.474;4.436;2023-07-20T04:43:08;15.04;89.46
78611;SHT30;67932;50.474;4.436;2023-07-20T04:45:34;15.17;89.07
78611;SHT30;67932;50.474;4.436;2023-07-20T04:48:00;15.08;89.36
78611;SHT30;67932;50.474;4.436;2023-07-20T04:50:26;15.16;89.18
78611;SHT30;67932;50.474;4.436;2023-07-20T04:52:53;15.21;88.99
78611;SHT30;67932;50.474;4.436;2023-07-20T04:55:19;15.26;88.71
78611;SHT30;67932;50.474;4.436;2023-07-20T04:57:45;15.35;88.49
78611;SHT30;67932;50.474;4.436;2023-07-20T05:00:12;15.37;88.33
78611;SHT30;67932;50.474;4.436;2023-07-20T05:02:39;15.40;88.34
78611;SHT30;67932;50.474;4.436;2023-07-20T05:05:05;15.32;88.37
78611;SHT30;67932;50.474;4.436;2023-07-20T05:07:32;15.12;89.25
78611;SHT30;67932;50.474;4.436;2023-07-20T05:09:58;15.30;88.84
78611;SHT30;67932;50.474;4.436;2023-07-20T05:12:25;15.41;88.40
78611;SHT30;67932;50.474;4.436;2023-07-20T05:14:51;15.38;88.25
78611;SHT30;67932;50.474;4.436;2023-07-20T05:17:18;15.44;88.34
78611;SHT30;67932;50.474;4.436;2023-07-20T05:19:44;15.62;87.78
78611;SHT30;67932;50.474;4.436;2023-07-20T05:22:10;15.59;87.54
78611;SHT30;67932;50.474;4.436;2023-07-20T05:24:38;15.45;88.14
78611;SHT30;67932;50.474;4.436;2023-07-20T05:27:04;15.52;88.05
78611;SHT30;67932;50.474;4.436;2023-07-20T05:29:30;15.50;88.12
78611;SHT30;67932;50.474;4.436;2023-07-20T05:31:57;15.57;87.83
78611;SHT30;67932;50.474;4.436;2023-07-20T05:34:24;15.59;87.71
78611;SHT30;67932;50.474;4.436;2023-07-20T05:36:50;15.58;87.74
78611;SHT30;67932;50.474;4.436;2023-07-20T05:39:19;15.64;87.46
78611;SHT30;67932;50.474;4.436;2023-07-20T05:41:45;15.61;87.73
78611;SHT30;67932;50.474;4.436;2023-07-20T05:44:12;15.65;87.43
78611;SHT30;67932;50.474;4.436;2023-07-20T05:46:38;15.61;87.46
78611;SHT30;67932;50.474;4.436;2023-07-20T05:49:04;15.69;86.99
78611;SHT30;67932;50.474;4.436;2023-07-20T05:51:30;15.77;86.40
78611;SHT30;67932;50.474;4.436;2023-07-20T05:53:56;15.85;86.56
78611;SHT30;67932;50.474;4.436;2023-07-20T05:56:23;15.79;86.26
78611;SHT30;67932;50.474;4.436;2023-07-20T05:58:49;15.79;86.01
78611;SHT30;67932;50.474;4.436;2023-07-20T06:01:16;15.95;85.70
78611;SHT30;67932;50.474;4.436;2023-07-20T06:03:44;16.10;85.25
78611;SHT30;67932;50.474;4.436;2023-07-20T06:06:10;16.16;84.87
78611;SHT30;67932;50.474;4.436;2023-07-20T06:08:38;16.26;84.99
78611;SHT30;67932;50.474;4.436;2023-07-20T06:11:04;16.33;84.74
78611;SHT30;67932;50.474;4.436;2023-07-20T06:13:30;16.30;83.52
78611;SHT30;67932;50.474;4.436;2023-07-20T06:15:57;16.40;82.77
78611;SHT30;67932;50.474;4.436;2023-07-20T06:18:23;16.39;83.02
78611;SHT30;67932;50.474;4.436;2023-07-20T06:20:51;16.39;82.60
78611;SHT30;67932;50.474;4.436;2023-07-20T06:23:18;16.33;82.81
78611;SHT30;67932;50.474;4.436;2023-07-20T06:25:44;16.36;82.87
78611;SHT30;67932;50.474;4.436;2023-07-20T06:28:11;16.26;82.38
78611;SHT30;67932;50.474;4.436;2023-07-20T06:30:38;16.25;82.41
78611;SHT30;67932;50.474;4.436;2023-07-20T06:33:04;16.36;81.58
78611;SHT30;67932;50.474;4.436;2023-07-20T06:35:30;16.43;81.71
78611;SHT30;67932;50.474;4.436;2023-07-20T06:37:56;16.46;80.66
78611;SHT30;67932;50.474;4.436;2023-07-20T06:40:25;16.55;80.28
78611;SHT30;67932;50.474;4.436;2023-07-20T06:42:51;16.70;79.75
78611;SHT30;67932;50.474;4.436;2023-07-20T06:45:17;16.66;79.82
78611;SHT30;67932;50.474;4.436;2023-07-20T06:47:43;16.67;79.83
78611;SHT30;67932;50.474;4.436;2023-07-20T06:50:10;16.64;79.88
78611;SHT30;67932;50.474;4.436;2023-07-20T06:52:37;16.64;79.87
78611;SHT30;67932;50.474;4.436;2023-07-20T06:55:04;16.74;77.61
78611;SHT30;67932;50.474;4.436;2023-07-20T06:57:30;16.71;76.84
78611;SHT30;67932;50.474;4.436;2023-07-20T06:59:56;16.73;76.35
78611;SHT30;67932;50.474;4.436;2023-07-20T07:02:23;16.84;76.62
78611;SHT30;67932;50.474;4.436;2023-07-20T07:04:49;16.90;75.84
78611;SHT30;67932;50.474;4.436;2023-07-20T07:07:15;17.06;75.49
78611;SHT30;67932;50.474;4.436;2023-07-20T07:09:42;17.30;74.69
78611;SHT30;67932;50.474;4.436;2023-07-20T07:12:08;17.36;75.04
78611;SHT30;67932;50.474;4.436;2023-07-20T07:14:35;17.38;74.61
78611;SHT30;67932;50.474;4.436;2023-07-20T07:17:01;17.41;76.27
78611;SHT30;67932;50.474;4.436;2023-07-20T07:19:27;17.17;77.05
78611;SHT30;67932;50.474;4.436;2023-07-20T07:21:53;17.17;77.40
78611;SHT30;67932;50.474;4.436;2023-07-20T07:24:19;17.39;76.30
78611;SHT30;67932;50.474;4.436;2023-07-20T07:26:46;17.31;75.99
78611;SHT30;67932;50.474;4.436;2023-07-20T07:29:12;17.41;76.75
78611;SHT30;67932;50.474;4.436;2023-07-20T07:31:38;17.17;75.43
78611;SHT30;67932;50.474;4.436;2023-07-20T07:34:05;17.08;74.62
78611;SHT30;67932;50.474;4.436;2023-07-20T07:36:31;17.00;74.81
78611;SHT30;67932;50.474;4.436;2023-07-20T07:38:58;17.10;74.40
78611;SHT30;67932;50.474;4.436;2023-07-20T07:41:24;17.11;73.35
78611;SHT30;67932;50.474;4.436;2023-07-20T07:43:50;17.07;73.43
78611;SHT30;67932;50.474;4.436;2023-07-20T07:46:17;17.13;73.05
78611;SHT30;67932;50.474;4.436;2023-07-20T07:48:43;17.27;72.54
78611;SHT30;67932;50.474;4.436;2023-07-20T07:51:09;17.41;71.77
78611;SHT30;67932;50.474;4.436;2023-07-20T07:53:36;17.39;71.47
78611;SHT30;67932;50.474;4.436;2023-07-20T07:56:06;17.69;71.27
78611;SHT30;67932;50.474;4.436;2023-07-20T07:58:32;17.74;70.61
78611;SHT30;67932;50.474;4.436;2023-07-20T08:00:59;17.99;69.49
78611;SHT30;67932;50.474;4.436;2023-07-20T08:03:25;18.00;68.56
78611;SHT30;67932;50.474;4.436;2023-07-20T08:05:54;18.32;68.35
78611;SHT30;67932;50.474;4.436;2023-07-20T08:08:24;18.16;70.67
78611;SHT30;67932;50.474;4.436;2023-07-20T08:10:55;18.40;69.88
78611;SHT30;67932;50.474;4.436;2023-07-20T08:13:21;18.12;71.36
78611;SHT30;67932;50.474;4.436;2023-07-20T08:15:50;17.99;71.35
78611;SHT30;67932;50.474;4.436;2023-07-20T08:18:17;17.98;71.24
78611;SHT30;67932;50.474;4.436;2023-07-20T08:20:46;17.66;70.70
78611;SHT30;67932;50.474;4.436;2023-07-20T08:23:13;17.78;71.00
78611;SHT30;67932;50.474;4.436;2023-07-20T08:25:40;17.62;71.65
78611;SHT30;67932;50.474;4.436;2023-07-20T08:28:10;17.68;70.96
78611;SHT30;67932;50.474;4.436;2023-07-20T08:30:47;17.71;70.47
78611;SHT30;67932;50.474;4.436;2023-07-20T08:33:16;17.88;69.78
78611;SHT30;67932;50.474;4.436;2023-07-20T08:35:44;17.98;69.18
78611;SHT30;67932;50.474;4.436;2023-07-20T08:38:10;18.26;68.64
78611;SHT30;67932;50.474;4.436;2023-07-20T08:40:41;18.32;67.63
78611;SHT30;67932;50.474;4.436;2023-07-20T08:43:12;18.43;67.44
78611;SHT30;67932;50.474;4.436;2023-07-20T08:45:42;18.80;67.09
78611;SHT30;67932;50.474;4.436;2023-07-20T08:48:09;18.50;66.44
78611;SHT30;67932;50.474;4.436;2023-07-20T08:50:36;18.65;67.51
78611;SHT30;67932;50.474;4.436;2023-07-20T08:53:03;18.70;67.42
78611;SHT30;67932;50.474;4.436;2023-07-20T08:55:30;18.64;67.75
78611;SHT30;67932;50.474;4.436;2023-07-20T08:57:58;18.49;67.44
78611;SHT30;67932;50.474;4.436;2023-07-20T09:00:26;18.53;67.69
78611;SHT30;67932;50.474;4.436;2023-07-20T09:02:56;18.64;67.15
78611;SHT30;67932;50.474;4.436;2023-07-20T09:05:24;18.47;67.32
78611;SHT30;67932;50.474;4.436;2023-07-20T09:07:53;18.60;67.11
78611;SHT30;67932;50.474;4.436;2023-07-20T09:10:24;18.47;67.42
78611;SHT30;67932;50.474;4.436;2023-07-20T09:12:51;18.84;66.86
78611;SHT30;67932;50.474;4.436;2023-07-20T09:15:17;19.05;65.62
78611;SHT30;67932;50.474;4.436;2023-07-20T09:17:49;19.00;65.22
78611;SHT30;67932;50.474;4.436;2023-07-20T09:20:17;19.19;64.49
78611;SHT30;67932;50.474;4.436;2023-07-20T09:22:44;19.34;64.73
78611;SHT30;67932;50.474;4.436;2023-07-20T09:25:17;19.25;63.31
78611;SHT30;67932;50.474;4.436;2023-07-20T09:27:47;19.36;62.66
78611;SHT30;67932;50.474;4.436;2023-07-20T09:30:15;19.19;62.01
78611;SHT30;67932;50.474;4.436;2023-07-20T09:32:45;19.17;60.97
78611;SHT30;67932;50.474;4.436;2023-07-20T09:35:15;19.31;60.44
78611;SHT30;67932;50.474;4.436;2023-07-20T09:38:00;19.57;61.57
78611;SHT30;67932;50.474;4.436;2023-07-20T09:40:27;19.62;62.83
78611;SHT30;67932;50.474;4.436;2023-07-20T09:42:54;19.45;60.30
78611;SHT30;67932;50.474;4.436;2023-07-20T09:45:39;19.51;60.68
78611;SHT30;67932;50.474;4.436;2023-07-20T09:48:08;19.85;61.56
78611;SHT30;67932;50.474;4.436;2023-07-20T09:50:41;19.70;60.77
78611;SHT30;67932;50.474;4.436;2023-07-20T09:53:13;19.70;60.79
78611;SHT30;67932;50.474;4.436;2023-07-20T09:55:44;19.58;59.59
78611;SHT30;67932;50.474;4.436;2023-07-20T09:58:11;19.35;60.35
78611;SHT30;67932;50.474;4.436;2023-07-20T10:00:39;19.73;58.86
78611;SHT30;67932;50.474;4.436;2023-07-20T10:03:06;19.93;58.47
78611;SHT30;67932;50.474;4.436;2023-07-20T10:05:40;20.08;58.41
78611;SHT30;67932;50.474;4.436;2023-07-20T10:08:12;19.90;58.76
78611;SHT30;67932;50.474;4.436;2023-07-20T10:10:41;19.87;59.28
78611;SHT30;67932;50.474;4.436;2023-07-20T10:13:16;20.03;58.59
78611;SHT30;67932;50.474;4.436;2023-07-20T10:15:54;20.02;59.85
78611;SHT30;67932;50.474;4.436;2023-07-20T10:18:46;19.93;60.13
78611;SHT30;67932;50.474;4.436;2023-07-20T10:21:17;19.85;59.95
78611;SHT30;67932;50.474;4.436;2023-07-20T10:23:45;19.80;60.40
78611;SHT30;67932;50.474;4.436;2023-07-20T10:26:12;19.73;60.12
78611;SHT30;67932;50.474;4.436;2023-07-20T10:28:39;19.76;59.80
78611;SHT30;67932;50.474;4.436;2023-07-20T10:31:08;19.76;59.81
78611;SHT30;67932;50.474;4.436;2023-07-20T10:33:36;20.12;59.06
78611;SHT30;67932;50.474;4.436;2023-07-20T10:36:04;20.41;58.92
78611;SHT30;67932;50.474;4.436;2023-07-20T10:43:55;20.76;56.96
78611;SHT30;67932;50.474;4.436;2023-07-20T10:46:43;21.04;58.73
78611;SHT30;67932;50.474;4.436;2023-07-20T10:49:11;20.77;57.19
78611;SHT30;67932;50.474;4.436;2023-07-20T10:51:49;20.50;57.60
78611;SHT30;67932;50.474;4.436;2023-07-20T10:56:51;21.41;55.61
78611;SHT30;67932;50.474;4.436;2023-07-20T11:01:58;21.41;53.13
78611;SHT30;67932;50.474;4.436;2023-07-20T11:04:42;21.27;53.35
78611;SHT30;67932;50.474;4.436;2023-07-20T11:07:09;21.25;53.64
78611;SHT30;67932;50.474;4.436;2023-07-20T11:09:37;21.21;54.10
78611;SHT30;67932;50.474;4.436;2023-07-20T11:12:11;21.75;54.17
78611;SHT30;67932;50.474;4.436;2023-07-20T11:15:04;21.69;55.90
78611;SHT30;67932;50.474;4.436;2023-07-20T11:17:32;21.39;54.51
78611;SHT30;67932;50.474;4.436;2023-07-20T11:20:00;21.24;54.22
78611;SHT30;67932;50.474;4.436;2023-07-20T11:22:27;21.45;53.80
78611;SHT30;67932;50.474;4.436;2023-07-20T11:24:57;21.79;54.44
78611;SHT30;67932;50.474;4.436;2023-07-20T11:27:24;21.73;51.54
78611;SHT30;67932;50.474;4.436;2023-07-20T11:29:50;21.75;52.32
78611;SHT30;67932;50.474;4.436;2023-07-20T11:32:24;22.86;50.89
78611;SHT30;67932;50.474;4.436;2023-07-20T11:34:50;22.64;50.26
78611;SHT30;67932;50.474;4.436;2023-07-20T11:37:17;22.61;50.83
78611;SHT30;67932;50.474;4.436;2023-07-20T11:39:47;22.74;51.93
78611;SHT30;67932;50.474;4.436;2023-07-20T11:42:14;22.17;51.64
78611;SHT30;67932;50.474;4.436;2023-07-20T11:44:41;21.96;52.11
78611;SHT30;67932;50.474;4.436;2023-07-20T11:47:08;21.78;52.61
78611;SHT30;67932;50.474;4.436;2023-07-20T11:49:36;21.92;53.49
78611;SHT30;67932;50.474;4.436;2023-07-20T11:52:05;22.56;52.46
78611;SHT30;67932;50.474;4.436;2023-07-20T11:54:33;22.29;51.79
78611;SHT30;67932;50.474;4.436;2023-07-20T11:57:03;22.77;51.22
78611;SHT30;67932;50.474;4.436;2023-07-20T11:59:31;22.81;51.53
78611;SHT30;67932;50.474;4.436;2023-07-20T12:02:02;22.23;49.62
78611;SHT30;67932;50.474;4.436;2023-07-20T12:04:30;22.46;49.97
78611;SHT30;67932;50.474;4.436;2023-07-20T12:06:57;22.97;48.15
78611;SHT30;67932;50.474;4.436;2023-07-20T12:09:23;22.58;48.86
78611;SHT30;67932;50.474;4.436;2023-07-20T12:11:50;22.14;51.00
78611;SHT30;67932;50.474;4.436;2023-07-20T12:14:16;22.39;49.55
78611;SHT30;67932;50.474;4.436;2023-07-20T12:16:43;22.09;49.25
78611;SHT30;67932;50.474;4.436;2023-07-20T12:19:11;22.37;49.55
78611;SHT30;67932;50.474;4.436;2023-07-20T12:21:39;22.21;50.93
78611;SHT30;67932;50.474;4.436;2023-07-20T12:24:07;22.14;51.23
78611;SHT30;67932;50.474;4.436;2023-07-20T12:26:35;22.17;52.07
78611;SHT30;67932;50.474;4.436;2023-07-20T12:29:01;22.07;51.85
78611;SHT30;67932;50.474;4.436;2023-07-20T12:31:30;22.26;51.72
78611;SHT30;67932;50.474;4.436;2023-07-20T12:33:57;21.95;52.25
78611;SHT30;67932;50.474;4.436;2023-07-20T12:36:24;22.77;50.39
78611;SHT30;67932;50.474;4.436;2023-07-20T12:38:50;22.64;51.59
78611;SHT30;67932;50.474;4.436;2023-07-20T12:41:16;22.77;50.74
78611;SHT30;67932;50.474;4.436;2023-07-20T12:43:44;21.95;51.51
78611;SHT30;67932;50.474;4.436;2023-07-20T12:46:11;21.88;51.69
78611;SHT30;67932;50.474;4.436;2023-07-20T12:48:39;21.85;51.43
78611;SHT30;67932;50.474;4.436;2023-07-20T12:51:08;22.10;51.06
78611;SHT30;67932;50.474;4.436;2023-07-20T12:53:35;21.76;51.51
78611;SHT30;67932;50.474;4.436;2023-07-20T12:56:02;21.90;52.13
78611;SHT30;67932;50.474;4.436;2023-07-20T12:58:28;21.82;52.41
78611;SHT30;67932;50.474;4.436;2023-07-20T13:00:54;21.92;52.91
78611;SHT30;67932;50.474;4.436;2023-07-20T13:03:21;22.40;52.16
78611;SHT30;67932;50.474;4.436;2023-07-20T13:05:48;22.91;51.99
78611;SHT30;67932;50.474;4.436;2023-07-20T13:08:14;24.06;49.63
78611;SHT30;67932;50.474;4.436;2023-07-20T13:10:41;24.41;49.00
78611;SHT30;67932;50.474;4.436;2023-07-20T13:13:08;24.43;47.60
78611;SHT30;67932;50.474;4.436;2023-07-20T13:15:43;26.13;45.21
78611;SHT30;67932;50.474;4.436;2023-07-20T13:18:09;25.62;45.30
78611;SHT30;67932;50.474;4.436;2023-07-20T13:20:35;25.48;45.00
78611;SHT30;67932;50.474;4.436;2023-07-20T13:23:02;25.82;45.38
78611;SHT30;67932;50.474;4.436;2023-07-20T13:25:28;26.06;44.12
78611;SHT30;67932;50.474;4.436;2023-07-20T13:27:54;25.70;44.99
78611;SHT30;67932;50.474;4.436;2023-07-20T13:30:21;25.38;44.33
78611;SHT30;67932;50.474;4.436;2023-07-20T13:32:47;25.70;43.37
78611;SHT30;67932;50.474;4.436;2023-07-20T13:35:13;26.27;41.52
78611;SHT30;67932;50.474;4.436;2023-07-20T13:37:41;27.83;39.04
78611;SHT30;67932;50.474;4.436;2023-07-20T13:40:07;25.90;40.62
78611;SHT30;67932;50.474;4.436;2023-07-20T13:42:39;25.53;42.60
78611;SHT30;67932;50.474;4.436;2023-07-20T13:45:07;27.43;37.53
78611;SHT30;67932;50.474;4.436;2023-07-20T13:47:33;27.32;39.21
78611;SHT30;67932;50.474;4.436;2023-07-20T13:49:59;27.62;39.53
78611;SHT30;67932;50.474;4.436;2023-07-20T13:52:27;27.94;38.11
78611;SHT30;67932;50.474;4.436;2023-07-20T13:54:53;26.48;38.33
78611;SHT30;67932;50.474;4.436;2023-07-20T13:57:19;27.43;39.75
78611;SHT30;67932;50.474;4.436;2023-07-20T13:59:45;28.18;37.33
78611;SHT30;67932;50.474;4.436;2023-07-20T14:02:13;27.74;38.09
78611;SHT30;67932;50.474;4.436;2023-07-20T14:04:40;27.53;39.62
78611;SHT30;67932;50.474;4.436;2023-07-20T14:07:07;27.80;38.36
78611;SHT30;67932;50.474;4.436;2023-07-20T14:09:33;25.99;41.50
78611;SHT30;67932;50.474;4.436;2023-07-20T14:11:59;25.19;43.77
78611;SHT30;67932;50.474;4.436;2023-07-20T14:14:25;25.01;43.66
78611;SHT30;67932;50.474;4.436;2023-07-20T14:16:52;24.46;45.16
78611;SHT30;67932;50.474;4.436;2023-07-20T14:19:18;24.13;46.21
78611;SHT30;67932;50.474;4.436;2023-07-20T14:21:44;25.52;42.55
78611;SHT30;67932;50.474;4.436;2023-07-20T14:24:10;25.92;39.33
78611;SHT30;67932;50.474;4.436;2023-07-20T14:26:37;26.54;38.68
78611;SHT30;67932;50.474;4.436;2023-07-20T14:29:03;27.05;38.72
78611;SHT30;67932;50.474;4.436;2023-07-20T14:31:30;26.47;39.46
78611;SHT30;67932;50.474;4.436;2023-07-20T14:33:56;26.30;38.24
78611;SHT30;67932;50.474;4.436;2023-07-20T14:36:22;27.63;36.29
78611;SHT30;67932;50.474;4.436;2023-07-20T14:38:48;28.36;35.08
78611;SHT30;67932;50.474;4.436;2023-07-20T14:41:15;26.54;38.96
78611;SHT30;67932;50.474;4.436;2023-07-20T14:43:41;27.24;38.30
78611;SHT30;67932;50.474;4.436;2023-07-20T14:46:07;25.52;42.15
78611;SHT30;67932;50.474;4.436;2023-07-20T14:48:34;25.88;41.63
78611;SHT30;67932;50.474;4.436;2023-07-20T14:51:00;25.05;42.19
78611;SHT30;67932;50.474;4.436;2023-07-20T14:53:26;24.80;42.50
78611;SHT30;67932;50.474;4.436;2023-07-20T14:55:59;25.82;40.97
78611;SHT30;67932;50.474;4.436;2023-07-20T14:58:26;25.85;39.89
78611;SHT30;67932;50.474;4.436;2023-07-20T15:00:52;25.29;41.01
78611;SHT30;67932;50.474;4.436;2023-07-20T15:03:18;25.32;42.77
78611;SHT30;67932;50.474;4.436;2023-07-20T15:05:45;24.57;42.39
78611;SHT30;67932;50.474;4.436;2023-07-20T15:08:11;24.68;43.33
78611;SHT30;67932;50.474;4.436;2023-07-20T15:10:37;24.33;43.44
78611;SHT30;67932;50.474;4.436;2023-07-20T15:13:04;24.74;43.44
78611;SHT30;67932;50.474;4.436;2023-07-20T15:15:30;25.12;42.38
78611;SHT30;67932;50.474;4.436;2023-07-20T15:17:56;26.36;40.13
78611;SHT30;67932;50.474;4.436;2023-07-20T15:20:23;27.76;36.68
78611;SHT30;67932;50.474;4.436;2023-07-20T15:22:49;25.78;38.36
78611;SHT30;67932;50.474;4.436;2023-07-20T15:25:16;25.31;38.52
78611;SHT30;67932;50.474;4.436;2023-07-20T15:27:42;26.36;37.28
78611;SHT30;67932;50.474;4.436;2023-07-20T15:30:10;27.24;35.45
78611;SHT30;67932;50.474;4.436;2023-07-20T15:32:36;27.41;37.47
78611;SHT30;67932;50.474;4.436;2023-07-20T15:35:03;25.96;37.70
78611;SHT30;67932;50.474;4.436;2023-07-20T15:37:30;26.65;36.66
78611;SHT30;67932;50.474;4.436;2023-07-20T15:39:57;26.47;36.79
78611;SHT30;67932;50.474;4.436;2023-07-20T15:42:23;26.41;38.76
78611;SHT30;67932;50.474;4.436;2023-07-20T15:44:50;25.69;39.40
78611;SHT30;67932;50.474;4.436;2023-07-20T15:47:17;24.65;41.09
78611;SHT30;67932;50.474;4.436;2023-07-20T15:49:43;24.75;40.60